ACA1455 KCLE-CYXU
Flight info
| Callsign | ACA1455 |
|---|---|
| Flight time | 0h 27m |
| Altitude | 15000 |
| Route | PFLYD1 PATRC DCT URLOS |
| Aircraft | A21N/M-SDE2E3FGHIRWXY/LB1 |
Departure
| Time | 2026-05-09 02:25 |
|---|---|
| Airport | Cleveland Hopkins International Airport (KCLE) |
Arrival
| Time | 2026-05-09 02:52 |
|---|---|
| Airport | London International Airport (CYXU) |
| Time | Latitude | Longitude | Altitude | Speed | Heading |
|---|---|---|---|---|---|
| 2026-05-09 02:05 | 41.40773 | -81.84279 | 800 ft | 0 kts | 139° |
| 2026-05-09 02:12 | 41.40774 | -81.84279 | 800 ft | 0 kts | 139° |
| 2026-05-09 02:13 | 41.40774 | -81.84280 | 800 ft | 0 kts | 139° |
| 2026-05-09 02:13 | 41.40777 | -81.84283 | 800 ft | 3 kts | 135° |
| 2026-05-09 02:13 | 41.40783 | -81.84305 | 800 ft | 3 kts | 72° |
| 2026-05-09 02:14 | 41.40774 | -81.84322 | 800 ft | 1 kts | 32° |
| 2026-05-09 02:14 | 41.40770 | -81.84325 | 800 ft | 3 kts | 27° |
| 2026-05-09 02:14 | 41.40754 | -81.84328 | 800 ft | 0 kts | 334° |
| 2026-05-09 02:15 | 41.40756 | -81.84329 | 800 ft | 1 kts | 334° |
| 2026-05-09 02:16 | 41.40763 | -81.84334 | 800 ft | 2 kts | 334° |
| 2026-05-09 02:17 | 41.40768 | -81.84341 | 800 ft | 2 kts | 309° |
| 2026-05-09 02:17 | 41.40779 | -81.84374 | 801 ft | 7 kts | 290° |
| 2026-05-09 02:17 | 41.40815 | -81.84429 | 800 ft | 9 kts | 342° |
| 2026-05-09 02:18 | 41.40884 | -81.84424 | 801 ft | 11 kts | 30° |
| 2026-05-09 02:18 | 41.40952 | -81.84380 | 802 ft | 12 kts | 4° |
| 2026-05-09 02:18 | 41.41037 | -81.84380 | 803 ft | 13 kts | 358° |
| 2026-05-09 02:18 | 41.41136 | -81.84382 | 802 ft | 16 kts | 359° |
| 2026-05-09 02:19 | 41.41243 | -81.84384 | 800 ft | 10 kts | 360° |
| 2026-05-09 02:19 | 41.41288 | -81.84368 | 800 ft | 2 kts | 46° |
| 2026-05-09 02:19 | 41.41299 | -81.84349 | 800 ft | 3 kts | 54° |
| 2026-05-09 02:19 | 41.41320 | -81.84315 | 800 ft | 6 kts | 50° |
| 2026-05-09 02:20 | 41.41357 | -81.84257 | 799 ft | 10 kts | 50° |
| 2026-05-09 02:20 | 41.41403 | -81.84183 | 800 ft | 11 kts | 50° |
| 2026-05-09 02:20 | 41.41436 | -81.84149 | 801 ft | 0 kts | 17° |
| 2026-05-09 02:23 | 41.41438 | -81.84149 | 801 ft | 1 kts | 16° |
| 2026-05-09 02:23 | 41.41473 | -81.84161 | 801 ft | 8 kts | 325° |
| 2026-05-09 02:23 | 41.41503 | -81.84233 | 800 ft | 10 kts | 271° |
| 2026-05-09 02:24 | 41.41463 | -81.84323 | 799 ft | 18 kts | 231° |
| 2026-05-09 02:24 | 41.41291 | -81.84592 | 798 ft | 70 kts | 227° |
| 2026-05-09 02:24 | 41.40807 | -81.85331 | 787 ft | 133 kts | 233° |
| 2026-05-09 02:24 | 41.40112 | -81.86446 | 803 ft | 174 kts | 226° |
| 2026-05-09 02:25 | 41.39317 | -81.87778 | 841 ft | 197 kts | 234° |
| 2026-05-09 02:25 | 41.38873 | -81.89601 | 1090 ft | 214 kts | 268° |
| 2026-05-09 02:25 | 41.39034 | -81.91603 | 1717 ft | 221 kts | 275° |
| 2026-05-09 02:25 | 41.39276 | -81.93548 | 2766 ft | 206 kts | 275° |
| 2026-05-09 02:26 | 41.39526 | -81.95442 | 3389 ft | 213 kts | 275° |
| 2026-05-09 02:26 | 41.39778 | -81.97455 | 3872 ft | 226 kts | 275° |
| 2026-05-09 02:26 | 41.40042 | -81.99551 | 4563 ft | 232 kts | 276° |
| 2026-05-09 02:26 | 41.40314 | -82.01685 | 5296 ft | 235 kts | 276° |
| 2026-05-09 02:27 | 41.40594 | -82.03850 | 5816 ft | 239 kts | 276° |
| 2026-05-09 02:27 | 41.40879 | -82.06046 | 5990 ft | 241 kts | 277° |
| 2026-05-09 02:27 | 41.41165 | -82.08253 | 6009 ft | 243 kts | 277° |
| 2026-05-09 02:27 | 41.41647 | -82.10424 | 6025 ft | 250 kts | 292° |
| 2026-05-09 02:28 | 41.42744 | -82.12278 | 6410 ft | 264 kts | 316° |
| 2026-05-09 02:28 | 41.44424 | -82.13352 | 7105 ft | 277 kts | 343° |
| 2026-05-09 02:28 | 41.46384 | -82.13255 | 7778 ft | 292 kts | 13° |
| 2026-05-09 02:28 | 41.48161 | -82.11864 | 8473 ft | 302 kts | 38° |
| 2026-05-09 02:29 | 41.49697 | -82.09930 | 9209 ft | 304 kts | 42° |
| 2026-05-09 02:29 | 41.51193 | -82.07920 | 9920 ft | 307 kts | 42° |
| 2026-05-09 02:29 | 41.52722 | -82.05875 | 10349 ft | 319 kts | 42° |
| 2026-05-09 02:29 | 41.54346 | -82.03731 | 10587 ft | 337 kts | 41° |
| 2026-05-09 02:30 | 41.56065 | -82.01479 | 10814 ft | 355 kts | 41° |
| 2026-05-09 02:30 | 41.57871 | -81.99121 | 11045 ft | 371 kts | 41° |
| 2026-05-09 02:30 | 41.59748 | -81.96672 | 11351 ft | 383 kts | 41° |
| 2026-05-09 02:30 | 41.61581 | -81.94055 | 11858 ft | 391 kts | 53° |
| 2026-05-09 02:31 | 41.62734 | -81.90746 | 12412 ft | 398 kts | 76° |
| 2026-05-09 02:31 | 41.63061 | -81.87068 | 12987 ft | 401 kts | 88° |
| 2026-05-09 02:31 | 41.63154 | -81.83324 | 13544 ft | 405 kts | 88° |
| 2026-05-09 02:31 | 41.63265 | -81.79544 | 14059 ft | 409 kts | 87° |
| 2026-05-09 02:32 | 41.63417 | -81.75725 | 14544 ft | 413 kts | 86° |
| 2026-05-09 02:32 | 41.63597 | -81.71881 | 14905 ft | 415 kts | 86° |
| 2026-05-09 02:32 | 41.63791 | -81.68024 | 15002 ft | 416 kts | 86° |
| 2026-05-09 02:32 | 41.63996 | -81.64159 | 14999 ft | 418 kts | 86° |
| 2026-05-09 02:33 | 41.64241 | -81.60286 | 15000 ft | 419 kts | 81° |
| 2026-05-09 02:33 | 41.65023 | -81.56559 | 15002 ft | 416 kts | 62° |
| 2026-05-09 02:33 | 41.66647 | -81.53428 | 15015 ft | 408 kts | 41° |
| 2026-05-09 02:33 | 41.68924 | -81.51269 | 15017 ft | 398 kts | 20° |
| 2026-05-09 02:34 | 41.71512 | -81.50036 | 15018 ft | 394 kts | 11° |
| 2026-05-09 02:34 | 41.74119 | -81.49066 | 15018 ft | 394 kts | 10° |
| 2026-05-09 02:34 | 41.76803 | -81.48097 | 15015 ft | 394 kts | 10° |
| 2026-05-09 02:34 | 41.79416 | -81.47145 | 15012 ft | 394 kts | 10° |
| 2026-05-09 02:35 | 41.82100 | -81.46157 | 15012 ft | 394 kts | 10° |
| 2026-05-09 02:35 | 41.84708 | -81.45189 | 15014 ft | 394 kts | 11° |
| 2026-05-09 02:35 | 41.87353 | -81.44203 | 15012 ft | 394 kts | 11° |
| 2026-05-09 02:35 | 41.89997 | -81.43216 | 15014 ft | 395 kts | 10° |
| 2026-05-09 02:36 | 41.92650 | -81.42223 | 15005 ft | 396 kts | 10° |
| 2026-05-09 02:36 | 41.95305 | -81.41227 | 15002 ft | 396 kts | 10° |
| 2026-05-09 02:36 | 41.97959 | -81.40230 | 15001 ft | 396 kts | 10° |
| 2026-05-09 02:36 | 42.00623 | -81.39311 | 14996 ft | 393 kts | 5° |
| 2026-05-09 02:37 | 42.03322 | -81.38874 | 14996 ft | 389 kts | 358° |
| 2026-05-09 02:37 | 42.06011 | -81.38730 | 14990 ft | 387 kts | 355° |
| 2026-05-09 02:37 | 42.08701 | -81.38736 | 15006 ft | 386 kts | 353° |
| 2026-05-09 02:37 | 42.11418 | -81.38802 | 14991 ft | 385 kts | 353° |
| 2026-05-09 02:38 | 42.14060 | -81.38872 | 14987 ft | 385 kts | 353° |
| 2026-05-09 02:38 | 42.16741 | -81.38928 | 14986 ft | 385 kts | 354° |
| 2026-05-09 02:38 | 42.19422 | -81.38962 | 14987 ft | 386 kts | 354° |
| 2026-05-09 02:38 | 42.22104 | -81.38978 | 14984 ft | 386 kts | 354° |
| 2026-05-09 02:39 | 42.24788 | -81.38983 | 14984 ft | 386 kts | 354° |
| 2026-05-09 02:39 | 42.27472 | -81.38981 | 14984 ft | 386 kts | 354° |
| 2026-05-09 02:39 | 42.30156 | -81.38978 | 15000 ft | 385 kts | 355° |
| 2026-05-09 02:39 | 42.32834 | -81.38973 | 14984 ft | 385 kts | 355° |
| 2026-05-09 02:40 | 42.35511 | -81.38969 | 14987 ft | 384 kts | 354° |
| 2026-05-09 02:40 | 42.38184 | -81.38966 | 14981 ft | 384 kts | 354° |
| 2026-05-09 02:40 | 42.40858 | -81.38964 | 14981 ft | 384 kts | 354° |
| 2026-05-09 02:40 | 42.43533 | -81.38962 | 14981 ft | 384 kts | 354° |
| 2026-05-09 02:41 | 42.46205 | -81.38961 | 14978 ft | 384 kts | 354° |
| 2026-05-09 02:41 | 42.48880 | -81.38960 | 14978 ft | 384 kts | 354° |
| 2026-05-09 02:41 | 42.51554 | -81.38959 | 14978 ft | 384 kts | 354° |
| 2026-05-09 02:41 | 42.54226 | -81.38958 | 14978 ft | 384 kts | 354° |
| 2026-05-09 02:42 | 42.56901 | -81.38953 | 14978 ft | 384 kts | 355° |
| 2026-05-09 02:42 | 42.59560 | -81.38944 | 14910 ft | 377 kts | 355° |
| 2026-05-09 02:42 | 42.62155 | -81.38933 | 14407 ft | 371 kts | 355° |
| 2026-05-09 02:42 | 42.64729 | -81.38928 | 13815 ft | 368 kts | 355° |
| 2026-05-09 02:43 | 42.67253 | -81.38923 | 13528 ft | 356 kts | 355° |
| 2026-05-09 02:43 | 42.69684 | -81.38915 | 13315 ft | 342 kts | 355° |
| 2026-05-09 02:43 | 42.72021 | -81.38908 | 13124 ft | 329 kts | 354° |
| 2026-05-09 02:43 | 42.74265 | -81.38903 | 12922 ft | 317 kts | 354° |
| 2026-05-09 02:44 | 42.76428 | -81.38899 | 12749 ft | 305 kts | 354° |
| 2026-05-09 02:44 | 42.78513 | -81.38899 | 12533 ft | 295 kts | 354° |
| 2026-05-09 02:44 | 42.80546 | -81.38903 | 12179 ft | 291 kts | 354° |
| 2026-05-09 02:44 | 42.82562 | -81.38912 | 11772 ft | 289 kts | 354° |
| 2026-05-09 02:45 | 42.84570 | -81.38920 | 11366 ft | 288 kts | 354° |
| 2026-05-09 02:45 | 42.86570 | -81.38927 | 10963 ft | 287 kts | 354° |
| 2026-05-09 02:45 | 42.88560 | -81.38930 | 10577 ft | 285 kts | 354° |
| 2026-05-09 02:45 | 42.90544 | -81.38932 | 10203 ft | 284 kts | 354° |
| 2026-05-09 02:46 | 42.92511 | -81.38931 | 9865 ft | 281 kts | 354° |
| 2026-05-09 02:46 | 42.94457 | -81.38930 | 9457 ft | 279 kts | 354° |
| 2026-05-09 02:46 | 42.96392 | -81.38931 | 9018 ft | 278 kts | 354° |
| 2026-05-09 02:46 | 42.98320 | -81.38935 | 8585 ft | 276 kts | 355° |
| 2026-05-09 02:47 | 43.00209 | -81.38936 | 8182 ft | 274 kts | 355° |
| 2026-05-09 02:47 | 43.02109 | -81.38937 | 7760 ft | 272 kts | 356° |
| 2026-05-09 02:47 | 43.03998 | -81.38937 | 7357 ft | 271 kts | 356° |
| 2026-05-09 02:47 | 43.05874 | -81.38938 | 6968 ft | 268 kts | 356° |
| 2026-05-09 02:48 | 43.07736 | -81.38938 | 6570 ft | 267 kts | 357° |
| 2026-05-09 02:48 | 43.09574 | -81.38657 | 6241 ft | 265 kts | 14° |
| 2026-05-09 02:48 | 43.11196 | -81.37589 | 6099 ft | 254 kts | 36° |
| 2026-05-09 02:48 | 43.12475 | -81.36012 | 5881 ft | 243 kts | 44° |
| 2026-05-09 02:49 | 43.13618 | -81.34327 | 5500 ft | 240 kts | 50° |
| 2026-05-09 02:49 | 43.14447 | -81.32360 | 5064 ft | 239 kts | 74° |
| 2026-05-09 02:49 | 43.14456 | -81.30144 | 4616 ft | 233 kts | 108° |
| 2026-05-09 02:49 | 43.13810 | -81.28142 | 4189 ft | 229 kts | 124° |
| 2026-05-09 02:50 | 43.12872 | -81.26425 | 3818 ft | 222 kts | 139° |
| 2026-05-09 02:50 | 43.11722 | -81.25055 | 3470 ft | 217 kts | 143° |
| 2026-05-09 02:50 | 43.10588 | -81.23712 | 3124 ft | 213 kts | 142° |
| 2026-05-09 02:50 | 43.09520 | -81.22400 | 3005 ft | 194 kts | 141° |
| 2026-05-09 02:51 | 43.08575 | -81.21239 | 2874 ft | 172 kts | 142° |
| 2026-05-09 02:51 | 43.07745 | -81.20213 | 2708 ft | 153 kts | 142° |
| 2026-05-09 02:51 | 43.06951 | -81.19237 | 2218 ft | 155 kts | 143° |
| 2026-05-09 02:51 | 43.06147 | -81.18280 | 1780 ft | 151 kts | 143° |
| 2026-05-09 02:52 | 43.05349 | -81.17358 | 1350 ft | 150 kts | 140° |
| 2026-05-09 02:52 | 43.04585 | -81.16435 | 1014 ft | 142 kts | 138° |
| 2026-05-09 02:52 | 43.03889 | -81.15603 | 909 ft | 122 kts | 139° |
| 2026-05-09 02:52 | 43.03456 | -81.15077 | 913 ft | 31 kts | 139° |
| 2026-05-09 02:53 | 43.03382 | -81.15042 | 913 ft | 10 kts | 203° |
| 2026-05-09 02:53 | 43.03331 | -81.15098 | 912 ft | 9 kts | 223° |
| 2026-05-09 02:53 | 43.03328 | -81.15102 | 911 ft | 0 kts | 223° |
| 2026-05-09 02:54 | 43.03322 | -81.15109 | 912 ft | 3 kts | 223° |
| 2026-05-09 02:54 | 43.03297 | -81.15144 | 914 ft | 7 kts | 224° |
| 2026-05-09 02:54 | 43.03249 | -81.15141 | 908 ft | 9 kts | 148° |
| 2026-05-09 02:55 | 43.03190 | -81.15074 | 906 ft | 13 kts | 140° |
| 2026-05-09 02:55 | 43.03124 | -81.14995 | 905 ft | 12 kts | 139° |
| 2026-05-09 02:55 | 43.03067 | -81.14928 | 905 ft | 10 kts | 138° |
| 2026-05-09 02:55 | 43.03017 | -81.14867 | 905 ft | 9 kts | 139° |
| 2026-05-09 02:56 | 43.02966 | -81.14855 | 904 ft | 6 kts | 191° |
| 2026-05-09 02:56 | 43.02947 | -81.14867 | 904 ft | 1 kts | 234° |
| 2026-05-09 02:56 | 43.02945 | -81.14875 | 904 ft | 1 kts | 254° |
| 2026-05-09 02:56 | 43.02945 | -81.14893 | 905 ft | 3 kts | 275° |
| 2026-05-09 02:57 | 43.02945 | -81.14894 | 905 ft | 0 kts | 275° |